Maxwell, California
Current Conditions -  °F | °C
As of 12:53 PM on Thursday 18 Dec 2014 (Local Time) from KOVE Reporting Station
Overcast Overcast  
Wind Chill: 57°   Ceiling: 4000
Heat Index: 57°   Visibility: 10mi
Dew Point: 45°   Wind: 7mph
Humidity: 64%   Direction: 160°SSE
Pressure: 30.18"   Gusts: NA
Location:  39.28°N, 122.19°W
Report Text: KOVE 182053Z AUTO 16006KT 10SM OVC040 14/07 A3018 RMK AO2 SLP222 T01390072 58011
Loading
Personal Weather Stations






























Interactive Weather Map New forecast layout! Learn more

10-Day Weather Forecast

Advertisements
Track Severe Weather on mobile